Time;durP1;ratioP1;P1;durP2;ratioP2;P2;SDS_P1;SDS_P2;PMS_P1;PMS_P2;Temp;Humidity;BMP_temperature;BMP_pressure;BME280_temperature;BME280_humidity;BME280_pressure;Samples;Min_cycle;Max_cycle;Signal;HPM_P1;HPM_P2
2021/06/24 00:01:53;;;;;;;8.80;5.97;;;;;;;;;;5091330;28;20514;-67
2021/06/24 00:04:18;;;;;;;7.60;5.97;;;;;;;;;;5090876;28;20051;-68
2021/06/24 00:06:43;;;;;;;9.25;5.85;;;;;;;;;;5093195;28;20032;-67
2021/06/24 00:09:09;;;;;;;9.13;6.18;;;;;;;;;;5095449;28;20505;-69
2021/06/24 00:11:35;;;;;;;9.77;5.70;;;;;;;;;;5095222;28;20092;-67
2021/06/24 00:14:09;;;;;;;8.38;5.47;;;;;;;;;;5095232;28;20111;-68
2021/06/24 00:16:34;;;;;;;7.57;5.07;;;;;;;;;;5095151;28;20035;-68
2021/06/24 00:19:00;;;;;;;10.90;6.85;;;;;;;;;;5095020;28;20484;-68
2021/06/24 00:21:25;;;;;;;11.57;5.65;;;;;;;;;;5095344;28;20035;-68
2021/06/24 00:23:51;;;;;;;11.70;6.50;;;;;;;;;;5096134;28;20051;-68
2021/06/24 00:26:16;;;;;;;8.48;5.50;;;;;;;;;;5095581;28;20063;-68
2021/06/24 00:28:41;;;;;;;8.98;5.45;;;;;;;;;;5094559;28;20035;-68
2021/06/24 00:31:06;;;;;;;9.68;5.85;;;;;;;;;;5095899;28;20016;-68
2021/06/24 00:33:32;;;;;;;8.75;5.57;;;;;;;;;;5095883;28;20032;-69
2021/06/24 00:35:57;;;;;;;8.00;5.93;;;;;;;;;;5095243;28;20024;-66
2021/06/24 00:38:23;;;;;;;7.65;5.07;;;;;;;;;;5095619;28;20059;-66
2021/06/24 00:40:48;;;;;;;7.63;5.07;;;;;;;;;;5095541;28;20380;-66
2021/06/24 00:43:15;;;;;;;6.88;5.13;;;;;;;;;;5095452;28;20063;-66
2021/06/24 00:45:41;;;;;;;9.98;5.18;;;;;;;;;;5095588;28;20124;-66
2021/06/24 00:48:07;;;;;;;7.43;5.03;;;;;;;;;;5091829;28;20515;-67
2021/06/24 00:50:33;;;;;;;7.35;5.13;;;;;;;;;;5094741;28;20107;-68
2021/06/24 00:52:58;;;;;;;6.10;4.50;;;;;;;;;;5106215;28;20024;-67
2021/06/24 00:58:08;;;;;;;6.85;5.13;;;;;;;;;;5114950;28;20068;-68
2021/06/24 01:00:33;;;;;;;8.88;4.75;;;;;;;;;;5115621;28;20038;-68
2021/06/24 01:02:58;;;;;;;6.00;4.18;;;;;;;;;;5115495;28;20019;-68
2021/06/24 01:05:24;;;;;;;6.72;5.05;;;;;;;;;;5115824;28;20058;-69
2021/06/24 01:07:49;;;;;;;7.07;4.55;;;;;;;;;;5115300;28;20468;-68
2021/06/24 01:10:14;;;;;;;6.05;4.70;;;;;;;;;;5115236;28;20028;-68
2021/06/24 01:12:40;;;;;;;6.65;4.63;;;;;;;;;;5115310;28;20023;-66
2021/06/24 01:15:05;;;;;;;6.47;4.05;;;;;;;;;;5115503;28;20454;-66
2021/06/24 01:17:31;;;;;;;7.32;4.25;;;;;;;;;;5114302;28;20027;-67
2021/06/24 01:19:56;;;;;;;7.93;4.38;;;;;;;;;;5115341;28;20029;-66
2021/06/24 01:22:21;;;;;;;7.57;4.43;;;;;;;;;;5115084;28;20028;-66
2021/06/24 01:24:46;;;;;;;9.65;4.57;;;;;;;;;;5115278;28;20058;-67
2021/06/24 01:27:12;;;;;;;6.53;4.43;;;;;;;;;;5115411;28;20016;-66
2021/06/24 01:29:37;;;;;;;7.03;4.47;;;;;;;;;;5115177;28;20357;-65
2021/06/24 01:32:03;;;;;;;7.80;5.15;;;;;;;;;;5115104;28;20160;-66
2021/06/24 01:34:28;;;;;;;7.20;4.57;;;;;;;;;;5114840;28;20160;-66
2021/06/24 01:36:53;;;;;;;6.65;4.40;;;;;;;;;;5095489;28;20028;-66
2021/06/24 01:39:19;;;;;;;6.60;3.83;;;;;;;;;;5094561;28;20027;-65
2021/06/24 01:44:48;;;;;;;7.13;4.13;;;;;;;;;;5093494;28;20039;-66
2021/06/24 01:47:13;;;;;;;5.50;3.80;;;;;;;;;;5094390;28;20384;-66
2021/06/24 01:49:39;;;;;;;5.90;3.63;;;;;;;;;;5094342;28;20039;-65
2021/06/24 01:52:05;;;;;;;5.93;4.10;;;;;;;;;;5094345;28;20376;-66
2021/06/24 01:54:30;;;;;;;5.95;3.30;;;;;;;;;;5094385;28;20372;-65
2021/06/24 01:56:55;;;;;;;5.07;3.88;;;;;;;;;;5094189;28;20447;-66
2021/06/24 01:59:21;;;;;;;5.70;3.97;;;;;;;;;;5093906;28;20031;-66
2021/06/24 02:01:46;;;;;;;4.85;3.45;;;;;;;;;;5094081;28;20484;-68
2021/06/24 02:04:11;;;;;;;5.82;4.28;;;;;;;;;;5094001;28;20048;-67
2021/06/24 02:06:37;;;;;;;5.57;4.30;;;;;;;;;;5094036;28;20024;-68
2021/06/24 02:09:02;;;;;;;6.70;4.05;;;;;;;;;;5093749;28;20491;-68
2021/06/24 02:11:28;;;;;;;6.00;4.45;;;;;;;;;;5093933;28;20035;-68
2021/06/24 02:13:53;;;;;;;7.28;4.25;;;;;;;;;;5093879;28;20051;-66
2021/06/24 02:16:18;;;;;;;6.53;4.10;;;;;;;;;;5093781;28;20024;-66
2021/06/24 02:18:43;;;;;;;9.45;4.40;;;;;;;;;;5094133;28;20032;-65
2021/06/24 02:21:09;;;;;;;5.30;3.72;;;;;;;;;;5093467;28;20023;-66
2021/06/24 02:23:34;;;;;;;6.07;4.25;;;;;;;;;;5093878;28;20107;-66
2021/06/24 02:26:00;;;;;;;7.28;4.15;;;;;;;;;;5093308;28;20032;-66
2021/06/24 02:28:25;;;;;;;6.20;4.40;;;;;;;;;;5093556;28;20035;-66
2021/06/24 02:30:50;;;;;;;5.22;3.97;;;;;;;;;;5093454;28;20024;-64
2021/06/24 02:33:17;;;;;;;5.63;4.00;;;;;;;;;;5093646;28;20085;-67
2021/06/24 02:35:45;;;;;;;6.32;4.13;;;;;;;;;;5093213;28;20473;-66
2021/06/24 02:38:11;;;;;;;5.15;3.42;;;;;;;;;;5093573;28;20039;-66
2021/06/24 02:40:36;;;;;;;6.13;3.75;;;;;;;;;;5093549;28;20036;-66
2021/06/24 02:43:02;;;;;;;5.63;3.90;;;;;;;;;;5093361;28;20020;-66
2021/06/24 02:45:27;;;;;;;5.57;3.40;;;;;;;;;;5093707;28;20024;-66
2021/06/24 02:47:52;;;;;;;5.75;4.10;;;;;;;;;;5093172;28;20032;-66
2021/06/24 02:50:18;;;;;;;5.15;3.58;;;;;;;;;;5093453;28;20095;-66
2021/06/24 02:52:43;;;;;;;5.45;3.53;;;;;;;;;;5093282;28;20052;-66
2021/06/24 02:55:08;;;;;;;5.03;3.53;;;;;;;;;;5093405;28;20038;-66
2021/06/24 02:57:34;;;;;;;6.25;4.18;;;;;;;;;;5093225;28;20432;-66
2021/06/24 02:59:59;;;;;;;6.28;3.97;;;;;;;;;;5093044;28;20112;-66
2021/06/24 03:02:24;;;;;;;5.55;3.90;;;;;;;;;;5093214;28;20067;-66
2021/06/24 03:04:50;;;;;;;7.90;3.65;;;;;;;;;;5093172;28;20044;-66
2021/06/24 03:07:15;;;;;;;5.03;3.95;;;;;;;;;;5093257;28;20043;-66
2021/06/24 03:09:41;;;;;;;6.25;4.05;;;;;;;;;;5090389;28;20131;-66
2021/06/24 03:12:06;;;;;;;5.95;3.65;;;;;;;;;;5072659;28;20021;-66
2021/06/24 03:14:32;;;;;;;5.47;3.95;;;;;;;;;;5073725;28;20035;-65
2021/06/24 03:16:57;;;;;;;5.82;4.07;;;;;;;;;;5072324;28;20032;-66
2021/06/24 03:19:22;;;;;;;5.03;3.63;;;;;;;;;;5072695;28;20023;-66
2021/06/24 03:21:48;;;;;;;5.93;3.88;;;;;;;;;;5072025;28;20431;-66
2021/06/24 03:24:14;;;;;;;6.72;3.75;;;;;;;;;;5072419;28;20036;-66
2021/06/24 03:26:39;;;;;;;5.45;3.35;;;;;;;;;;5071821;28;20039;-66
2021/06/24 03:29:05;;;;;;;4.45;3.22;;;;;;;;;;5073140;28;20078;-66
2021/06/24 03:31:30;;;;;;;5.20;3.85;;;;;;;;;;5072251;28;20068;-66
2021/06/24 03:33:55;;;;;;;7.20;4.35;;;;;;;;;;5074979;28;20074;-65
2021/06/24 03:36:21;;;;;;;5.22;3.58;;;;;;;;;;5089931;28;20032;-66
2021/06/24 03:38:48;;;;;;;8.63;3.75;;;;;;;;;;5092786;28;20024;-66
2021/06/24 03:41:15;;;;;;;6.03;3.65;;;;;;;;;;5092707;28;20094;-66
2021/06/24 03:43:40;;;;;;;4.93;3.30;;;;;;;;;;5097251;28;20024;-66
2021/06/24 03:46:06;;;;;;;6.60;3.67;;;;;;;;;;5096415;28;20431;-66
2021/06/24 03:48:31;;;;;;;6.07;3.97;;;;;;;;;;5096697;28;20032;-66
2021/06/24 03:50:56;;;;;;;4.75;3.15;;;;;;;;;;5096745;28;20024;-66
2021/06/24 03:53:22;;;;;;;5.10;3.88;;;;;;;;;;5096573;28;20028;-66
2021/06/24 03:55:47;;;;;;;6.43;4.00;;;;;;;;;;5096563;28;20032;-65
2021/06/24 03:58:13;;;;;;;5.13;3.45;;;;;;;;;;5096612;28;20023;-66
2021/06/24 04:00:40;;;;;;;6.88;3.60;;;;;;;;;;5086431;28;20039;-66
2021/06/24 04:03:05;;;;;;;4.72;3.50;;;;;;;;;;5075579;28;20461;-66
2021/06/24 04:05:31;;;;;;;6.07;4.07;;;;;;;;;;5075162;28;20060;-66
2021/06/24 04:08:00;;;;;;;5.38;3.78;;;;;;;;;;5075893;28;20028;-66
2021/06/24 04:10:29;;;;;;;5.57;3.53;;;;;;;;;;5076105;28;20028;-66
2021/06/24 04:12:54;;;;;;;7.93;3.90;;;;;;;;;;5075921;28;20024;-66
2021/06/24 04:15:20;;;;;;;6.20;3.30;;;;;;;;;;5074720;28;20082;-66
2021/06/24 04:17:46;;;;;;;4.82;3.05;;;;;;;;;;5075313;28;20457;-65
2021/06/24 04:20:11;;;;;;;6.00;3.97;;;;;;;;;;5075910;28;20023;-66
2021/06/24 04:22:36;;;;;;;4.93;3.25;;;;;;;;;;5075794;28;20025;-66
2021/06/24 04:25:02;;;;;;;5.03;3.35;;;;;;;;;;5075788;28;20482;-66
2021/06/24 04:27:27;;;;;;;4.78;3.40;;;;;;;;;;5075708;28;20073;-66
2021/06/24 04:29:52;;;;;;;5.18;3.55;;;;;;;;;;5075845;28;20036;-66
2021/06/24 04:32:18;;;;;;;4.55;3.45;;;;;;;;;;5075655;28;20024;-66
2021/06/24 04:34:43;;;;;;;4.80;3.25;;;;;;;;;;5076582;28;20020;-66
2021/06/24 04:37:08;;;;;;;5.20;3.58;;;;;;;;;;5095369;28;20032;-66
2021/06/24 04:39:33;;;;;;;5.78;3.72;;;;;;;;;;5095772;28;20024;-66
2021/06/24 04:41:59;;;;;;;5.13;3.35;;;;;;;;;;5095670;28;20016;-66
2021/06/24 04:44:24;;;;;;;7.63;4.00;;;;;;;;;;5095709;28;20484;-66
2021/06/24 04:46:50;;;;;;;4.57;3.13;;;;;;;;;;5095581;28;20020;-66
2021/06/24 04:49:17;;;;;;;6.43;4.13;;;;;;;;;;5095706;28;20036;-66
2021/06/24 04:51:42;;;;;;;7.38;3.78;;;;;;;;;;5094860;28;20119;-66
2021/06/24 04:54:08;;;;;;;4.78;3.25;;;;;;;;;;5095443;28;20107;-66
2021/06/24 04:56:33;;;;;;;6.38;3.55;;;;;;;;;;5094083;28;20039;-66
2021/06/24 04:58:58;;;;;;;6.15;3.10;;;;;;;;;;5081067;28;20025;-66
2021/06/24 05:01:23;;;;;;;4.43;3.30;;;;;;;;;;5074567;28;20030;-67
2021/06/24 05:03:49;;;;;;;5.28;3.40;;;;;;;;;;5075019;28;20053;-68
2021/06/24 05:06:16;;;;;;;4.35;3.25;;;;;;;;;;5074149;28;20036;-68
2021/06/24 05:08:41;;;;;;;4.10;2.92;;;;;;;;;;5074450;28;20031;-68
2021/06/24 05:11:07;;;;;;;6.07;3.35;;;;;;;;;;5075297;28;20020;-68
2021/06/24 05:13:32;;;;;;;5.50;3.60;;;;;;;;;;5074785;28;20035;-66
2021/06/24 05:15:57;;;;;;;5.82;3.72;;;;;;;;;;5074796;28;20032;-66
2021/06/24 05:18:23;;;;;;;5.18;3.25;;;;;;;;;;5074756;28;20465;-65
2021/06/24 05:20:48;;;;;;;6.57;3.20;;;;;;;;;;5074792;28;20105;-66
2021/06/24 05:23:14;;;;;;;4.78;3.00;;;;;;;;;;5074580;28;20052;-66
2021/06/24 05:25:43;;;;;;;3.80;2.83;;;;;;;;;;5074721;28;20453;-66
2021/06/24 05:28:09;;;;;;;6.38;2.63;;;;;;;;;;5073930;28;20476;-66
2021/06/24 05:30:34;;;;;;;3.90;2.75;;;;;;;;;;5074537;28;20028;-66
2021/06/24 05:33:00;;;;;;;4.18;2.78;;;;;;;;;;5074459;28;20028;-66
2021/06/24 05:35:25;;;;;;;4.38;2.63;;;;;;;;;;5081326;28;20063;-65
2021/06/24 05:37:51;;;;;;;4.88;3.00;;;;;;;;;;5094426;28;20028;-66
2021/06/24 05:40:16;;;;;;;3.70;2.70;;;;;;;;;;5093564;28;20031;-66
2021/06/24 05:42:41;;;;;;;4.40;2.90;;;;;;;;;;5080568;28;20062;-66
2021/06/24 05:45:07;;;;;;;4.10;2.88;;;;;;;;;;5073686;28;20103;-66
2021/06/24 05:47:32;;;;;;;3.85;2.70;;;;;;;;;;5073466;28;20031;-66
2021/06/24 05:49:59;;;;;;;3.55;2.33;;;;;;;;;;5074084;28;20036;-66
2021/06/24 05:52:25;;;;;;;6.03;2.83;;;;;;;;;;5074080;28;20021;-66
2021/06/24 05:54:50;;;;;;;4.22;3.05;;;;;;;;;;5074057;28;20089;-66
2021/06/24 05:57:16;;;;;;;5.55;3.40;;;;;;;;;;5073913;28;20465;-66
2021/06/24 05:59:41;;;;;;;3.55;2.58;;;;;;;;;;5073885;28;20025;-66
2021/06/24 06:02:06;;;;;;;4.50;3.00;;;;;;;;;;5073863;28;20013;-66
2021/06/24 06:04:32;;;;;;;4.15;2.80;;;;;;;;;;5073269;28;20504;-66
2021/06/24 06:06:57;;;;;;;5.60;3.08;;;;;;;;;;5073418;28;20024;-66
2021/06/24 06:09:22;;;;;;;4.63;2.90;;;;;;;;;;5072901;28;20381;-66
2021/06/24 06:11:48;;;;;;;5.72;3.00;;;;;;;;;;5072886;28;20115;-66
2021/06/24 06:14:13;;;;;;;4.50;3.10;;;;;;;;;;5073250;28;20059;-66
2021/06/24 06:16:39;;;;;;;4.90;2.92;;;;;;;;;;5072875;28;20035;-66
2021/06/24 06:19:04;;;;;;;5.80;3.20;;;;;;;;;;5073409;28;20035;-66
2021/06/24 06:21:30;;;;;;;3.88;2.53;;;;;;;;;;5073475;28;20024;-66
2021/06/24 06:23:56;;;;;;;4.78;3.28;;;;;;;;;;5073830;28;20074;-66
2021/06/24 06:26:23;;;;;;;4.40;2.90;;;;;;;;;;5073447;28;20043;-65
2021/06/24 06:28:49;;;;;;;4.50;2.97;;;;;;;;;;5084741;28;20066;-66
2021/06/24 06:31:16;;;;;;;4.78;2.80;;;;;;;;;;5093374;28;20512;-66
2021/06/24 06:33:41;;;;;;;3.95;2.97;;;;;;;;;;5093080;28;20513;-66
2021/06/24 06:36:06;;;;;;;3.92;2.95;;;;;;;;;;5092536;28;20011;-66
2021/06/24 06:38:32;;;;;;;5.93;2.95;;;;;;;;;;5092969;28;20016;-66
2021/06/24 06:40:57;;;;;;;4.90;2.95;;;;;;;;;;5092669;28;20035;-66
2021/06/24 06:43:23;;;;;;;3.78;2.80;;;;;;;;;;5092334;28;20024;-66
2021/06/24 06:45:48;;;;;;;4.50;2.53;;;;;;;;;;5092655;28;20388;-66
2021/06/24 06:48:13;;;;;;;4.28;2.60;;;;;;;;;;5092684;28;20111;-66
2021/06/24 06:50:39;;;;;;;3.88;2.42;;;;;;;;;;5091907;28;20101;-66
2021/06/24 06:53:06;;;;;;;2.78;1.95;;;;;;;;;;5092897;28;20035;-66
2021/06/24 06:55:31;;;;;;;2.67;2.03;;;;;;;;;;5092470;28;20043;-65
2021/06/24 06:57:57;;;;;;;6.82;2.10;;;;;;;;;;5092182;28;20028;-66
2021/06/24 07:00:24;;;;;;;3.10;1.73;;;;;;;;;;5093190;28;20020;-66
2021/06/24 07:02:49;;;;;;;5.25;2.15;;;;;;;;;;5092776;28;20032;-66
2021/06/24 07:05:15;;;;;;;4.18;2.50;;;;;;;;;;5093387;28;20126;-66
2021/06/24 07:07:40;;;;;;;5.13;3.15;;;;;;;;;;5092699;28;20043;-66
2021/06/24 07:10:05;;;;;;;6.30;4.20;;;;;;;;;;5092757;28;20036;-66
2021/06/24 07:12:31;;;;;;;4.32;3.08;;;;;;;;;;5093061;28;20073;-65
2021/06/24 07:14:56;;;;;;;4.63;3.20;;;;;;;;;;5093216;28;20024;-67
2021/06/24 07:17:22;;;;;;;6.07;4.18;;;;;;;;;;5096134;28;20032;-66
2021/06/24 07:19:47;;;;;;;7.00;5.63;;;;;;;;;;5097405;28;20016;-66
2021/06/24 07:22:12;;;;;;;6.60;5.45;;;;;;;;;;5097201;28;20455;-66
2021/06/24 07:24:38;;;;;;;8.25;5.28;;;;;;;;;;5097265;28;20115;-67
2021/06/24 07:27:04;;;;;;;7.78;5.60;;;;;;;;;;5089752;28;20039;-68
2021/06/24 07:29:29;;;;;;;9.32;6.05;;;;;;;;;;5096645;28;20036;-68
2021/06/24 07:31:54;;;;;;;9.88;5.82;;;;;;;;;;5096523;28;20105;-68
2021/06/24 07:34:20;;;;;;;8.73;6.32;;;;;;;;;;5088366;28;20456;-68
2021/06/24 07:36:46;;;;;;;9.00;6.78;;;;;;;;;;5092389;28;20124;-69
2021/06/24 07:39:11;;;;;;;8.20;6.70;;;;;;;;;;5093758;28;20032;-68
2021/06/24 07:41:37;;;;;;;8.45;6.78;;;;;;;;;;5093023;28;20020;-69
2021/06/24 07:44:02;;;;;;;9.75;6.68;;;;;;;;;;5093729;28;20372;-68
2021/06/24 07:46:27;;;;;;;9.93;6.95;;;;;;;;;;5093094;28;20036;-68
2021/06/24 07:48:53;;;;;;;9.30;6.65;;;;;;;;;;5092892;28;20031;-68
2021/06/24 07:51:19;;;;;;;10.55;7.03;;;;;;;;;;5093561;28;20016;-68
2021/06/24 07:53:44;;;;;;;10.15;6.22;;;;;;;;;;5093505;28;20766;-68
2021/06/24 07:56:10;;;;;;;9.05;6.75;;;;;;;;;;5092554;28;20089;-68
2021/06/24 07:58:36;;;;;;;12.57;7.13;;;;;;;;;;5086324;28;20103;-68
2021/06/24 08:01:01;;;;;;;8.43;6.63;;;;;;;;;;5082768;28;20120;-68
2021/06/24 08:03:26;;;;;;;13.27;6.63;;;;;;;;;;5090801;28;20038;-68
2021/06/24 08:05:52;;;;;;;10.07;6.88;;;;;;;;;;5090991;28;20099;-69
2021/06/24 08:08:17;;;;;;;9.25;6.47;;;;;;;;;;5090960;28;20464;-68
2021/06/24 08:10:42;;;;;;;8.65;5.72;;;;;;;;;;5092113;28;20444;-68
2021/06/24 08:13:08;;;;;;;11.30;6.30;;;;;;;;;;5090930;28;20020;-68
2021/06/24 08:15:33;;;;;;;8.15;5.53;;;;;;;;;;5091196;28;20776;-68
2021/06/24 08:17:58;;;;;;;9.38;5.88;;;;;;;;;;5091974;28;20020;-68
2021/06/24 08:20:24;;;;;;;11.00;6.60;;;;;;;;;;5091487;28;20061;-69
2021/06/24 08:22:49;;;;;;;28.73;7.32;;;;;;;;;;5092369;28;20039;-68
2021/06/24 08:25:14;;;;;;;9.70;5.78;;;;;;;;;;5093001;28;20019;-68
2021/06/24 08:27:40;;;;;;;8.45;5.20;;;;;;;;;;5092442;28;20046;-68
2021/06/24 08:30:06;;;;;;;9.20;5.30;;;;;;;;;;5092997;28;20044;-67
2021/06/24 08:32:32;;;;;;;6.97;5.18;;;;;;;;;;5093054;28;20089;-68
2021/06/24 08:34:57;;;;;;;7.95;4.80;;;;;;;;;;5090987;28;20440;-68
2021/06/24 08:37:22;;;;;;;7.82;5.20;;;;;;;;;;5093372;28;20488;-68
2021/06/24 08:39:48;;;;;;;8.65;5.10;;;;;;;;;;5092716;28;20020;-68
2021/06/24 08:42:15;;;;;;;8.02;5.13;;;;;;;;;;5092779;28;20373;-68
2021/06/24 08:44:40;;;;;;;10.07;6.07;;;;;;;;;;5090000;28;20085;-69
2021/06/24 08:47:06;;;;;;;7.05;5.63;;;;;;;;;;5092002;28;20396;-68
2021/06/24 08:49:32;;;;;;;7.93;5.70;;;;;;;;;;5093433;28;20039;-68
2021/06/24 08:51:58;;;;;;;7.60;5.63;;;;;;;;;;5092814;28;20028;-69
2021/06/24 08:54:24;;;;;;;7.55;5.75;;;;;;;;;;5092704;28;20057;-69
2021/06/24 08:56:50;;;;;;;7.57;5.40;;;;;;;;;;5089804;28;20368;-66
2021/06/24 08:59:15;;;;;;;6.97;5.70;;;;;;;;;;5086353;28;20040;-68
2021/06/24 09:01:47;;;;;;;7.47;5.30;;;;;;;;;;5090809;28;20028;-69
2021/06/24 09:04:13;;;;;;;8.13;6.30;;;;;;;;;;5088799;28;20105;-68
2021/06/24 09:06:39;;;;;;;7.30;5.75;;;;;;;;;;5089875;28;20072;-68
2021/06/24 09:09:05;;;;;;;7.80;6.38;;;;;;;;;;5089728;28;20451;-68
2021/06/24 09:11:30;;;;;;;9.40;5.97;;;;;;;;;;5089391;28;20645;-68
2021/06/24 09:14:01;;;;;;;10.95;5.38;;;;;;;;;;5088660;28;20034;-69
2021/06/24 09:16:31;;;;;;;7.60;5.80;;;;;;;;;;5089161;28;20095;-68
2021/06/24 09:19:15;;;;;;;6.78;5.32;;;;;;;;;;5089591;28;20150;-69
2021/06/24 09:21:40;;;;;;;7.70;5.30;;;;;;;;;;5091289;28;20035;-68
2021/06/24 09:24:26;;;;;;;8.52;5.57;;;;;;;;;;5089777;28;20036;-69
2021/06/24 09:26:51;;;;;;;;;;;;;;;;;;5090398;28;20048;-68
2021/06/24 09:29:17;;;;;;;6.75;5.10;;;;;;;;;;5089904;28;20022;-66
2021/06/24 09:31:43;;;;;;;7.15;5.22;;;;;;;;;;5091304;28;20476;-69
2021/06/24 09:34:10;;;;;;;7.20;4.78;;;;;;;;;;5091106;28;20562;-69
2021/06/24 09:36:58;;;;;;;5.75;4.10;;;;;;;;;;5090508;28;20108;-67
2021/06/24 09:39:33;;;;;;;4.95;4.45;;;;;;;;;;5090021;28;20047;-67
2021/06/24 09:41:59;;;;;;;5.45;4.30;;;;;;;;;;5091149;28;20039;-68
2021/06/24 09:44:26;;;;;;;5.57;4.43;;;;;;;;;;5091236;28;20032;-67
2021/06/24 09:46:52;;;;;;;5.40;3.97;;;;;;;;;;5091148;28;20475;-67
2021/06/24 09:49:33;;;;;;;4.55;3.75;;;;;;;;;;5089617;28;20079;-67
2021/06/24 09:51:59;;;;;;;5.25;3.75;;;;;;;;;;5090863;28;20032;-66
2021/06/24 09:54:38;;;;;;;5.00;3.70;;;;;;;;;;5091316;28;20039;-67
2021/06/24 09:57:05;;;;;;;4.72;3.70;;;;;;;;;;5090537;28;20119;-67
2021/06/24 09:59:35;;;;;;;5.10;3.78;;;;;;;;;;5090377;28;20027;-65
2021/06/24 10:02:08;;;;;;;4.43;3.60;;;;;;;;;;5091502;28;20024;-69
2021/06/24 10:04:33;;;;;;;5.47;3.22;;;;;;;;;;5090028;28;20404;-68
2021/06/24 10:07:06;;;;;;;4.43;3.30;;;;;;;;;;5090403;28;20039;-69
2021/06/24 10:09:31;;;;;;;5.13;2.92;;;;;;;;;;5090386;28;20395;-69
2021/06/24 10:11:58;;;;;;;4.00;2.70;;;;;;;;;;5091234;28;20028;-69
2021/06/24 10:14:23;;;;;;;4.50;2.38;;;;;;;;;;5073696;28;20464;-69
2021/06/24 10:16:49;;;;;;;3.70;2.63;;;;;;;;;;5070873;28;20064;-69
2021/06/24 10:19:17;;;;;;;3.42;2.00;;;;;;;;;;5070219;28;20024;-69
2021/06/24 10:21:43;;;;;;;3.22;2.13;;;;;;;;;;5070939;28;20029;-69
2021/06/24 10:24:12;;;;;;;2.90;1.90;;;;;;;;;;5070966;28;20461;-69
2021/06/24 10:26:44;;;;;;;2.83;2.00;;;;;;;;;;5071112;28;20104;-69
2021/06/24 10:29:09;;;;;;;2.15;1.70;;;;;;;;;;5070936;28;20041;-69
2021/06/24 10:31:36;;;;;;;2.00;1.60;;;;;;;;;;5070898;28;20019;-69
2021/06/24 10:34:03;;;;;;;1.80;1.33;;;;;;;;;;5070381;28;20548;-70
2021/06/24 10:36:29;;;;;;;1.67;1.33;;;;;;;;;;5085559;28;20089;-68
2021/06/24 10:38:56;;;;;;;1.80;1.30;;;;;;;;;;5090077;28;20028;-66
2021/06/24 10:41:22;;;;;;;1.88;1.23;;;;;;;;;;5084268;28;20093;-66
2021/06/24 10:43:48;;;;;;;2.25;1.35;;;;;;;;;;5088613;28;20036;-67
2021/06/24 10:46:15;;;;;;;2.42;1.50;;;;;;;;;;5089398;28;20020;-67
2021/06/24 10:48:40;;;;;;;2.35;1.40;;;;;;;;;;5088995;28;20070;-68
2021/06/24 10:51:07;;;;;;;2.13;1.30;;;;;;;;;;5089482;28;20032;-67
2021/06/24 10:53:32;;;;;;;2.35;1.52;;;;;;;;;;5089258;28;20024;-68
2021/06/24 10:55:58;;;;;;;3.75;1.30;;;;;;;;;;5089722;28;20035;-67
2021/06/24 10:58:24;;;;;;;2.53;1.38;;;;;;;;;;5090363;28;20024;-67
2021/06/24 11:00:50;;;;;;;1.30;1.10;;;;;;;;;;5089672;28;20027;-67
2021/06/24 11:03:16;;;;;;;2.13;1.63;;;;;;;;;;5088633;28;20036;-66
2021/06/24 11:05:41;;;;;;;2.10;1.55;;;;;;;;;;5089500;28;20096;-68
2021/06/24 11:08:16;;;;;;;3.47;1.50;;;;;;;;;;5086139;28;20357;-66
2021/06/24 11:10:57;;;;;;;2.50;1.40;;;;;;;;;;5088223;28;20065;-67
2021/06/24 11:13:35;;;;;;;2.67;1.55;;;;;;;;;;5088874;28;20035;-67
2021/06/24 11:16:01;;;;;;;1.77;1.17;;;;;;;;;;5090382;28;20032;-67
2021/06/24 11:18:35;;;;;;;1.67;1.20;;;;;;;;;;5089599;28;20028;-67
2021/06/24 11:21:02;;;;;;;2.30;1.60;;;;;;;;;;5090030;28;20074;-66
2021/06/24 11:23:29;;;;;;;4.55;1.70;;;;;;;;;;5089510;28;20024;-67
2021/06/24 11:26:17;;;;;;;2.55;1.40;;;;;;;;;;5089387;28;20408;-67
2021/06/24 11:29:03;;;;;;;4.50;1.48;;;;;;;;;;5089232;28;20093;-67
2021/06/24 11:32:08;;;;;;;2.55;1.45;;;;;;;;;;5089325;28;20032;-68
2021/06/24 11:37:04;;;;;;;1.73;1.40;;;;;;;;;;5069821;28;20056;-67
2021/06/24 11:39:35;;;;;;;2.35;1.60;;;;;;;;;;5074452;28;20024;-67
2021/06/24 11:42:01;;;;;;;2.40;1.40;;;;;;;;;;5090904;28;20027;-67
2021/06/24 11:44:36;;;;;;;1.70;1.20;;;;;;;;;;5090339;28;20031;-67
2021/06/24 11:47:06;;;;;;;1.38;1.20;;;;;;;;;;5087968;28;20392;-66
2021/06/24 12:04:01;;;;;;;2.28;1.20;;;;;;;;;;5094146;28;20086;-67
2021/06/24 12:06:39;;;;;;;1.88;1.20;;;;;;;;;;5093979;28;20031;-68
2021/06/24 12:09:04;;;;;;;1.88;1.10;;;;;;;;;;5093823;28;20472;-66
2021/06/24 12:11:34;;;;;;;1.08;0.95;;;;;;;;;;5093785;28;20051;-67
2021/06/24 12:14:13;;;;;;;1.73;1.00;;;;;;;;;;5094066;28;20445;-66
2021/06/24 12:16:38;;;;;;;1.88;1.00;;;;;;;;;;5093368;28;20020;-67
2021/06/24 12:19:04;;;;;;;1.95;1.00;;;;;;;;;;5094069;28;20032;-66
2021/06/24 12:21:30;;;;;;;2.15;0.90;;;;;;;;;;5093404;28;20459;-67
2021/06/24 12:23:56;;;;;;;4.25;0.90;;;;;;;;;;5093815;28;20034;-66
2021/06/24 12:26:22;;;;;;;1.10;0.80;;;;;;;;;;5093989;28;20439;-67
2021/06/24 12:28:47;;;;;;;1.20;0.82;;;;;;;;;;5093334;28;20035;-67
2021/06/24 12:31:19;;;;;;;2.83;0.95;;;;;;;;;;5093713;28;20035;-67
2021/06/24 12:33:47;;;;;;;0.88;0.73;;;;;;;;;;5093601;28;20046;-67
2021/06/24 12:36:12;;;;;;;1.08;0.70;;;;;;;;;;5094018;28;20051;-66
2021/06/24 12:38:41;;;;;;;1.88;0.90;;;;;;;;;;5093268;28;20055;-67
2021/06/24 12:41:08;;;;;;;2.22;0.80;;;;;;;;;;5093901;28;20024;-67
2021/06/24 12:43:34;;;;;;;0.90;0.80;;;;;;;;;;5092604;28;20047;-66
2021/06/24 12:46:00;;;;;;;0.80;0.70;;;;;;;;;;5093760;28;20063;-66
2021/06/24 12:48:25;;;;;;;0.82;0.70;;;;;;;;;;5089597;28;20031;-66
2021/06/24 12:50:50;;;;;;;1.10;0.73;;;;;;;;;;5094623;28;20055;-66
2021/06/24 12:53:16;;;;;;;0.70;0.70;;;;;;;;;;5092282;28;20035;-66
2021/06/24 12:55:47;;;;;;;4.07;0.98;;;;;;;;;;5092912;28;20051;-67
2021/06/24 12:58:14;;;;;;;1.50;0.70;;;;;;;;;;5091675;28;20043;-66
2021/06/24 13:00:40;;;;;;;0.80;0.80;;;;;;;;;;5093469;28;20032;-67
2021/06/24 13:03:06;;;;;;;1.88;0.95;;;;;;;;;;5091955;28;20051;-66
2021/06/24 13:05:33;;;;;;;1.40;0.90;;;;;;;;;;5093216;28;20357;-66
2021/06/24 13:08:01;;;;;;;0.98;0.80;;;;;;;;;;5092969;28;20028;-67
2021/06/24 13:10:26;;;;;;;1.40;1.00;;;;;;;;;;5092361;28;20031;-66
2021/06/24 13:12:51;;;;;;;1.88;1.10;;;;;;;;;;5091822;28;20023;-66
2021/06/24 13:15:39;;;;;;;5.88;4.20;;;;;;;;;;5092516;28;20059;-69
2021/06/24 13:18:04;;;;;;;8.10;5.15;;;;;;;;;;5090227;28;20385;-69
2021/06/24 13:20:30;;;;;;;7.05;5.03;;;;;;;;;;5092307;28;20042;-69
2021/06/24 13:23:06;;;;;;;11.15;5.30;;;;;;;;;;5092404;28;20016;-69
2021/06/24 13:25:39;;;;;;;4.88;3.60;;;;;;;;;;5090253;28;20032;-69
2021/06/24 13:28:05;;;;;;;5.22;3.60;;;;;;;;;;5092655;28;20036;-69
2021/06/24 13:30:34;;;;;;;5.00;3.10;;;;;;;;;;5092123;28;20032;-69
2021/06/24 13:33:00;;;;;;;5.53;2.55;;;;;;;;;;5091672;28;20468;-68
2021/06/24 13:35:26;;;;;;;3.85;2.58;;;;;;;;;;5091537;28;20070;-69
2021/06/24 13:37:56;;;;;;;6.10;4.10;;;;;;;;;;5092889;28;20065;-69
2021/06/24 13:40:29;;;;;;;4.93;2.88;;;;;;;;;;5090234;28;20055;-69
2021/06/24 13:42:58;;;;;;;5.03;2.83;;;;;;;;;;5091161;28;20523;-69
2021/06/24 13:45:24;;;;;;;7.65;4.88;;;;;;;;;;5091326;28;20032;-69
2021/06/24 13:47:49;;;;;;;5.60;4.20;;;;;;;;;;5092533;28;20038;-69
2021/06/24 13:50:15;;;;;;;6.30;3.83;;;;;;;;;;5092120;28;20028;-69
2021/06/24 13:52:40;;;;;;;6.25;4.40;;;;;;;;;;5091886;28;20441;-69
2021/06/24 13:55:06;;;;;;;5.55;3.80;;;;;;;;;;5090986;28;20039;-69
2021/06/24 13:57:32;;;;;;;7.00;5.07;;;;;;;;;;5091992;28;20091;-69
2021/06/24 13:59:57;;;;;;;8.55;6.45;;;;;;;;;;5090505;28;20035;-69
2021/06/24 14:02:22;;;;;;;9.48;6.75;;;;;;;;;;5091903;28;20456;-67
2021/06/24 14:04:48;;;;;;;7.97;5.97;;;;;;;;;;5090309;28;20047;-69
2021/06/24 14:07:13;;;;;;;9.63;5.10;;;;;;;;;;5091141;28;20030;-69
2021/06/24 14:09:39;;;;;;;7.40;5.20;;;;;;;;;;5092027;28;20043;-69
2021/06/24 14:12:05;;;;;;;8.38;5.53;;;;;;;;;;5091316;28;20044;-69
2021/06/24 14:14:31;;;;;;;11.00;6.57;;;;;;;;;;5091320;28;20499;-68
2021/06/24 14:16:56;;;;;;;8.48;5.38;;;;;;;;;;5090875;28;20058;-69
2021/06/24 14:19:26;;;;;;;11.95;8.38;;;;;;;;;;5091930;28;20445;-69
2021/06/24 14:21:51;;;;;;;10.70;7.50;;;;;;;;;;5091928;28;20058;-69
2021/06/24 14:24:17;;;;;;;14.80;8.10;;;;;;;;;;5090871;28;20028;-69
2021/06/24 14:26:42;;;;;;;12.27;7.47;;;;;;;;;;5090551;28;20364;-69
2021/06/24 14:29:08;;;;;;;11.45;7.78;;;;;;;;;;5090607;28;20059;-68
2021/06/24 14:31:34;;;;;;;10.77;7.72;;;;;;;;;;5091128;28;20111;-69
2021/06/24 14:34:00;;;;;;;11.18;7.22;;;;;;;;;;5091078;28;20120;-69
2021/06/24 14:36:25;;;;;;;9.57;7.45;;;;;;;;;;5090835;28;20039;-70
2021/06/24 14:38:50;;;;;;;12.38;7.38;;;;;;;;;;5090994;28;20464;-69
2021/06/24 14:41:16;;;;;;;11.38;7.53;;;;;;;;;;5091248;28;20019;-69
2021/06/24 14:43:41;;;;;;;12.23;8.32;;;;;;;;;;5090020;28;20036;-68
2021/06/24 14:46:08;;;;;;;12.40;7.50;;;;;;;;;;5089566;28;20074;-68
2021/06/24 14:48:34;;;;;;;10.68;7.68;;;;;;;;;;5086622;28;20016;-68
2021/06/24 14:50:59;;;;;;;10.40;8.35;;;;;;;;;;5088795;28;20434;-68
2021/06/24 14:53:25;;;;;;;12.15;7.72;;;;;;;;;;5089557;28;20638;-69
2021/06/24 14:55:50;;;;;;;10.15;7.85;;;;;;;;;;5088927;28;20027;-69
2021/06/24 14:58:15;;;;;;;10.00;8.10;;;;;;;;;;5089753;28;20032;-68
2021/06/24 15:00:41;;;;;;;10.48;7.57;;;;;;;;;;5090993;28;20487;-69
2021/06/24 15:03:08;;;;;;;10.57;7.88;;;;;;;;;;5090184;28;20452;-67